This is the latest recevied weather packets stored in our database for station/object DL7HMX-13. If no packets are shown the sender has not sent any weather packets the latest 10 day(s).
| Time | Temp. | Humidity | Pressure | Rain* | Wind** | Luminosity | Snow |
|---|---|---|---|---|---|---|---|
| 1777923024 | 20.56° C | 46% | 1010.3 hPa | 0 mm | - | 0 W/m² | - |
| 1777922427 | 20.56° C | 50% | 1010.8 hPa | 0 mm | - | 0 W/m² | - |
| 1777921831 | 20.56° C | 50% | 1010.9 hPa | 0 mm | - | 0 W/m² | - |
| 1777921217 | 20.56° C | 46% | 1010.6 hPa | 0 mm | - | 0 W/m² | - |
| 1777920620 | 21.11° C | 47% | 1010.4 hPa | 0 mm | - | 0 W/m² | - |
| 1777920023 | 21.11° C | 50% | 1010.6 hPa | 0 mm | - | 0 W/m² | - |
| 1777919426 | 22.22° C | 46% | 1010.5 hPa | 0 mm | - | 0 W/m² | - |
| 1777918829 | 22.78° C | 44% | 1010.2 hPa | 0 mm | - | 0 W/m² | - |
| 1777918217 | 22.22° C | 44% | 1009.9 hPa | 0 mm | - | 1 W/m² | - |
| 1777917618 | 22.78° C | 43% | 1009.8 hPa | 0 mm | - | 3 W/m² | - |
| 1777917020 | 23.33° C | 41% | 1009.6 hPa | 0 mm | - | 5 W/m² | - |
| 1777916423 | 23.33° C | 39% | 1009.6 hPa | 0 mm | - | 9 W/m² | - |
| 1777915826 | 23.89° C | 38% | 1009.6 hPa | 0 mm | - | 17 W/m² | - |
| 1777915229 | 23.89° C | 39% | 1009.6 hPa | 0 mm | - | 18 W/m² | - |
| 1777914616 | 25° C | 39% | 1009.6 hPa | 0 mm | - | 25 W/m² | - |
| 1777914019 | 25.56° C | 36% | 1009.6 hPa | 0 mm | - | 50 W/m² | - |
| 1777913422 | 25.56° C | 34% | 1009.7 hPa | 0 mm | - | 61 W/m² | - |
| 1777912826 | 26.11° C | 34% | 1009.7 hPa | 0 mm | - | 89 W/m² | - |
| 1777912228 | 26.11° C | 34% | 1009.7 hPa | 0 mm | - | 115 W/m² | - |
| 1777911630 | 26.11° C | 35% | 1009.8 hPa | 0 mm | - | 147 W/m² | - |
| 1777911017 | 26.11° C | 35% | 1009.8 hPa | 0 mm | - | 152 W/m² | - |
| 1777910419 | 25.56° C | 36% | 1009.9 hPa | 0 mm | - | 129 W/m² | - |
| 1777909823 | 25.56° C | 36% | 1009.8 hPa | 0 mm | - | 112 W/m² | - |
| 1777909225 | 26.67° C | 35% | 1009.9 hPa | 0 mm | - | 148 W/m² | - |
| 1777908629 | 27.22° C | 34% | 1010 hPa | 0 mm | - | 348 W/m² | - |
* Rain latest hour (hover to see other rain measurements)
** Current wind speed in m/s (hover to see current wind gust speed)